Time,TemperatureF,DewpointF,PressureIn,WindDirection,WindDirectionDegrees,WindSpeedMPH,WindSpeedGustMPH,Humidity,HourlyPrecipIn,Conditions,Clouds,dailyrainin,SoftwareType,DateUTC
2013-04-10 00:00:00,57.0,51.9,30.08,North,-999,-999.0,-999.0,83,-99.99,,,-99.99,Netatmo,2013-04-09 22:00:00,
2013-04-10 00:10:00,57.0,51.9,30.07,North,-999,-999.0,-999.0,83,-99.99,,,-99.99,Netatmo,2013-04-09 22:10:00,
2013-04-10 00:15:00,57.0,51.9,30.07,North,-999,-999.0,-999.0,83,-99.99,,,-99.99,Netatmo,2013-04-09 22:15:00,
2013-04-10 00:20:00,57.0,51.9,30.07,North,-999,-999.0,-999.0,83,-99.99,,,-99.99,Netatmo,2013-04-09 22:20:00,
2013-04-10 00:30:00,57.0,51.9,30.06,North,-999,-999.0,-999.0,83,-99.99,,,-99.99,Netatmo,2013-04-09 22:30:00,
2013-04-10 00:35:00,57.0,51.9,30.06,North,-999,-999.0,-999.0,83,-99.99,,,-99.99,Netatmo,2013-04-09 22:35:00,
2013-04-10 00:40:00,57.0,51.9,30.06,North,-999,-999.0,-999.0,83,-99.99,,,-99.99,Netatmo,2013-04-09 22:40:00,
2013-04-10 00:45:00,57.0,51.9,30.06,North,-999,-999.0,-999.0,83,-99.99,,,-99.99,Netatmo,2013-04-09 22:45:00,
2013-04-10 00:50:00,57.0,51.9,30.06,North,-999,-999.0,-999.0,83,-99.99,,,-99.99,Netatmo,2013-04-09 22:50:00,
2013-04-10 00:55:00,56.8,51.8,30.06,North,-999,-999.0,-999.0,83,-99.99,,,-99.99,Netatmo,2013-04-09 22:55:00,
2013-04-10 01:00:00,56.8,51.8,30.06,North,-999,-999.0,-999.0,83,-99.99,,,-99.99,Netatmo,2013-04-09 23:00:00,
2013-04-10 01:05:00,56.8,51.8,30.06,North,-999,-999.0,-999.0,83,-99.99,,,-99.99,Netatmo,2013-04-09 23:05:00,
2013-04-10 01:10:00,56.8,51.8,30.06,North,-999,-999.0,-999.0,83,-99.99,,,-99.99,Netatmo,2013-04-09 23:10:00,
2013-04-10 01:15:00,56.7,51.6,30.06,North,-999,-999.0,-999.0,83,-99.99,,,-99.99,Netatmo,2013-04-09 23:15:00,
2013-04-10 01:20:00,56.7,51.6,30.06,North,-999,-999.0,-999.0,83,-99.99,,,-99.99,Netatmo,2013-04-09 23:20:00,
2013-04-10 01:25:00,56.8,51.4,30.05,North,-999,-999.0,-999.0,82,-99.99,,,-99.99,Netatmo,2013-04-09 23:25:00,
2013-04-10 01:30:00,56.8,51.4,30.05,North,-999,-999.0,-999.0,82,-99.99,,,-99.99,Netatmo,2013-04-09 23:30:00,
2013-04-10 01:35:00,56.8,51.4,30.06,North,-999,-999.0,-999.0,82,-99.99,,,-99.99,Netatmo,2013-04-09 23:35:00,
2013-04-10 01:40:00,56.8,51.4,30.06,North,-999,-999.0,-999.0,82,-99.99,,,-99.99,Netatmo,2013-04-09 23:40:00,
2013-04-10 01:45:00,57.0,51.3,30.06,North,-999,-999.0,-999.0,81,-99.99,,,-99.99,Netatmo,2013-04-09 23:45:00,
2013-04-10 01:50:00,57.0,51.3,30.06,North,-999,-999.0,-999.0,81,-99.99,,,-99.99,Netatmo,2013-04-09 23:50:00,
2013-04-10 01:55:00,57.0,51.3,30.06,North,-999,-999.0,-999.0,81,-99.99,,,-99.99,Netatmo,2013-04-09 23:55:00,
2013-04-10 02:00:00,57.0,51.3,30.06,North,-999,-999.0,-999.0,81,-99.99,,,-99.99,Netatmo,2013-04-10 00:00:00,
2013-04-10 02:05:00,56.8,51.1,30.05,North,-999,-999.0,-999.0,81,-99.99,,,-99.99,Netatmo,2013-04-10 00:05:00,
2013-04-10 02:10:00,56.8,51.1,30.05,North,-999,-999.0,-999.0,81,-99.99,,,-99.99,Netatmo,2013-04-10 00:10:00,
2013-04-10 02:15:00,56.8,51.1,30.05,North,-999,-999.0,-999.0,81,-99.99,,,-99.99,Netatmo,2013-04-10 00:15:00,
2013-04-10 02:20:00,56.8,51.1,30.05,North,-999,-999.0,-999.0,81,-99.99,,,-99.99,Netatmo,2013-04-10 00:20:00,
2013-04-10 02:25:00,56.7,50.9,30.05,North,-999,-999.0,-999.0,81,-99.99,,,-99.99,Netatmo,2013-04-10 00:25:00,
2013-04-10 02:30:00,56.7,50.9,30.05,North,-999,-999.0,-999.0,81,-99.99,,,-99.99,Netatmo,2013-04-10 00:30:00,
2013-04-10 02:35:00,56.5,50.8,30.05,North,-999,-999.0,-999.0,81,-99.99,,,-99.99,Netatmo,2013-04-10 00:35:00,
2013-04-10 02:40:00,56.5,50.8,30.05,North,-999,-999.0,-999.0,81,-99.99,,,-99.99,Netatmo,2013-04-10 00:40:00,
2013-04-10 02:45:00,56.3,50.6,30.04,North,-999,-999.0,-999.0,81,-99.99,,,-99.99,Netatmo,2013-04-10 00:45:00,
2013-04-10 02:50:00,56.3,50.6,30.04,North,-999,-999.0,-999.0,81,-99.99,,,-99.99,Netatmo,2013-04-10 00:50:00,
2013-04-10 02:55:00,56.3,50.9,30.04,North,-999,-999.0,-999.0,82,-99.99,,,-99.99,Netatmo,2013-04-10 00:55:00,
2013-04-10 03:00:00,56.3,50.9,30.04,North,-999,-999.0,-999.0,82,-99.99,,,-99.99,Netatmo,2013-04-10 01:00:00,
2013-04-10 03:05:00,56.3,50.9,30.05,North,-999,-999.0,-999.0,82,-99.99,,,-99.99,Netatmo,2013-04-10 01:05:00,
2013-04-10 03:15:00,56.3,51.2,30.04,North,-999,-999.0,-999.0,83,-99.99,,,-99.99,Netatmo,2013-04-10 01:15:00,
2013-04-10 03:20:00,56.3,51.2,30.04,North,-999,-999.0,-999.0,83,-99.99,,,-99.99,Netatmo,2013-04-10 01:20:00,
2013-04-10 03:25:00,56.3,51.2,30.03,North,-999,-999.0,-999.0,83,-99.99,,,-99.99,Netatmo,2013-04-10 01:25:00,
2013-04-10 03:30:00,56.3,51.2,30.03,North,-999,-999.0,-999.0,83,-99.99,,,-99.99,Netatmo,2013-04-10 01:30:00,
2013-04-10 03:35:00,56.3,51.2,30.03,North,-999,-999.0,-999.0,83,-99.99,,,-99.99,Netatmo,2013-04-10 01:35:00,
2013-04-10 03:45:00,56.1,51.0,30.03,North,-999,-999.0,-999.0,83,-99.99,,,-99.99,Netatmo,2013-04-10 01:45:00,
2013-04-10 03:50:00,56.1,51.0,30.03,North,-999,-999.0,-999.0,83,-99.99,,,-99.99,Netatmo,2013-04-10 01:50:00,
2013-04-10 03:55:00,56.1,51.4,30.02,North,-999,-999.0,-999.0,84,-99.99,,,-99.99,Netatmo,2013-04-10 01:55:00,
2013-04-10 04:00:00,56.1,51.4,30.02,North,-999,-999.0,-999.0,84,-99.99,,,-99.99,Netatmo,2013-04-10 02:00:00,
2013-04-10 04:05:00,56.1,51.4,30.03,North,-999,-999.0,-999.0,84,-99.99,,,-99.99,Netatmo,2013-04-10 02:05:00,
2013-04-10 04:10:00,56.1,51.4,30.03,North,-999,-999.0,-999.0,84,-99.99,,,-99.99,Netatmo,2013-04-10 02:10:00,
2013-04-10 04:15:00,55.9,51.2,30.02,North,-999,-999.0,-999.0,84,-99.99,,,-99.99,Netatmo,2013-04-10 02:15:00,
2013-04-10 04:20:00,55.9,51.2,30.02,North,-999,-999.0,-999.0,84,-99.99,,,-99.99,Netatmo,2013-04-10 02:20:00,
2013-04-10 04:25:00,55.9,51.2,30.02,North,-999,-999.0,-999.0,84,-99.99,,,-99.99,Netatmo,2013-04-10 02:25:00,
2013-04-10 04:30:00,55.9,51.2,30.02,North,-999,-999.0,-999.0,84,-99.99,,,-99.99,Netatmo,2013-04-10 02:30:00,
2013-04-10 04:40:00,55.8,51.0,30.02,North,-999,-999.0,-999.0,84,-99.99,,,-99.99,Netatmo,2013-04-10 02:40:00,
2013-04-10 04:45:00,55.8,51.0,30.03,North,-999,-999.0,-999.0,84,-99.99,,,-99.99,Netatmo,2013-04-10 02:45:00,
2013-04-10 04:50:00,55.8,51.0,30.03,North,-999,-999.0,-999.0,84,-99.99,,,-99.99,Netatmo,2013-04-10 02:50:00,
2013-04-10 04:55:00,55.8,51.0,30.02,North,-999,-999.0,-999.0,84,-99.99,,,-99.99,Netatmo,2013-04-10 02:55:00,
2013-04-10 05:00:00,55.8,51.0,30.02,North,-999,-999.0,-999.0,84,-99.99,,,-99.99,Netatmo,2013-04-10 03:00:00,
2013-04-10 05:05:00,55.8,51.0,30.02,North,-999,-999.0,-999.0,84,-99.99,,,-99.99,Netatmo,2013-04-10 03:05:00,
2013-04-10 05:10:00,55.8,51.0,30.02,North,-999,-999.0,-999.0,84,-99.99,,,-99.99,Netatmo,2013-04-10 03:10:00,
2013-04-10 05:15:00,55.8,51.0,30.02,North,-999,-999.0,-999.0,84,-99.99,,,-99.99,Netatmo,2013-04-10 03:15:00,
2013-04-10 05:20:00,55.8,51.0,30.02,North,-999,-999.0,-999.0,84,-99.99,,,-99.99,Netatmo,2013-04-10 03:20:00,
2013-04-10 05:25:00,55.9,51.2,30.03,North,-999,-999.0,-999.0,84,-99.99,,,-99.99,Netatmo,2013-04-10 03:25:00,
2013-04-10 05:30:00,55.9,51.2,30.03,North,-999,-999.0,-999.0,84,-99.99,,,-99.99,Netatmo,2013-04-10 03:30:00,
2013-04-10 05:35:00,55.9,51.2,30.03,North,-999,-999.0,-999.0,84,-99.99,,,-99.99,Netatmo,2013-04-10 03:35:00,
2013-04-10 05:40:00,55.9,51.2,30.03,North,-999,-999.0,-999.0,84,-99.99,,,-99.99,Netatmo,2013-04-10 03:40:00,
2013-04-10 05:45:00,56.1,51.4,30.02,North,-999,-999.0,-999.0,84,-99.99,,,-99.99,Netatmo,2013-04-10 03:45:00,
2013-04-10 05:50:00,56.1,51.4,30.02,North,-999,-999.0,-999.0,84,-99.99,,,-99.99,Netatmo,2013-04-10 03:50:00,
2013-04-10 05:55:00,56.3,51.8,30.03,North,-999,-999.0,-999.0,85,-99.99,,,-99.99,Netatmo,2013-04-10 03:55:00,
2013-04-10 06:00:00,56.3,51.8,30.03,North,-999,-999.0,-999.0,85,-99.99,,,-99.99,Netatmo,2013-04-10 04:00:00,
2013-04-10 06:05:00,56.3,51.8,30.02,North,-999,-999.0,-999.0,85,-99.99,,,-99.99,Netatmo,2013-04-10 04:05:00,
2013-04-10 06:10:00,56.3,51.8,30.02,North,-999,-999.0,-999.0,85,-99.99,,,-99.99,Netatmo,2013-04-10 04:10:00,
2013-04-10 06:15:00,56.5,52.0,30.03,North,-999,-999.0,-999.0,85,-99.99,,,-99.99,Netatmo,2013-04-10 04:15:00,
2013-04-10 06:20:00,56.5,52.0,30.03,North,-999,-999.0,-999.0,85,-99.99,,,-99.99,Netatmo,2013-04-10 04:20:00,
2013-04-10 06:25:00,56.5,52.0,30.02,North,-999,-999.0,-999.0,85,-99.99,,,-99.99,Netatmo,2013-04-10 04:25:00,
2013-04-10 06:35:00,56.7,52.2,30.02,North,-999,-999.0,-999.0,85,-99.99,,,-99.99,Netatmo,2013-04-10 04:35:00,
2013-04-10 06:40:00,56.7,52.2,30.02,North,-999,-999.0,-999.0,85,-99.99,,,-99.99,Netatmo,2013-04-10 04:40:00,
2013-04-10 06:45:00,56.7,51.9,30.02,North,-999,-999.0,-999.0,84,-99.99,,,-99.99,Netatmo,2013-04-10 04:45:00,
2013-04-10 06:50:00,56.7,51.9,30.02,North,-999,-999.0,-999.0,84,-99.99,,,-99.99,Netatmo,2013-04-10 04:50:00,
2013-04-10 06:55:00,56.7,51.9,30.02,North,-999,-999.0,-999.0,84,-99.99,,,-99.99,Netatmo,2013-04-10 04:55:00,
2013-04-10 07:00:00,56.7,51.9,30.02,North,-999,-999.0,-999.0,84,-99.99,,,-99.99,Netatmo,2013-04-10 05:00:00,
2013-04-10 07:05:00,56.7,51.9,30.03,North,-999,-999.0,-999.0,84,-99.99,,,-99.99,Netatmo,2013-04-10 05:05:00,
2013-04-10 07:10:00,56.7,51.9,30.03,North,-999,-999.0,-999.0,84,-99.99,,,-99.99,Netatmo,2013-04-10 05:10:00,
2013-04-10 07:15:00,56.8,52.1,30.03,North,-999,-999.0,-999.0,84,-99.99,,,-99.99,Netatmo,2013-04-10 05:15:00,
2013-04-10 07:20:00,56.8,52.1,30.03,North,-999,-999.0,-999.0,84,-99.99,,,-99.99,Netatmo,2013-04-10 05:20:00,
2013-04-10 07:30:00,56.8,52.1,30.03,North,-999,-999.0,-999.0,84,-99.99,,,-99.99,Netatmo,2013-04-10 05:30:00,
2013-04-10 07:40:00,56.8,52.1,30.04,North,-999,-999.0,-999.0,84,-99.99,,,-99.99,Netatmo,2013-04-10 05:40:00,
2013-04-10 07:45:00,57.0,52.2,30.04,North,-999,-999.0,-999.0,84,-99.99,,,-99.99,Netatmo,2013-04-10 05:45:00,
2013-04-10 07:55:00,57.4,52.6,30.04,North,-999,-999.0,-999.0,84,-99.99,,,-99.99,Netatmo,2013-04-10 05:55:00,
2013-04-10 08:00:00,57.4,52.6,30.04,North,-999,-999.0,-999.0,84,-99.99,,,-99.99,Netatmo,2013-04-10 06:00:00,
2013-04-10 08:05:00,57.6,52.8,30.06,North,-999,-999.0,-999.0,84,-99.99,,,-99.99,Netatmo,2013-04-10 06:05:00,
2013-04-10 08:10:00,57.6,52.8,30.06,North,-999,-999.0,-999.0,84,-99.99,,,-99.99,Netatmo,2013-04-10 06:10:00,
2013-04-10 08:15:00,57.9,53.1,30.05,North,-999,-999.0,-999.0,84,-99.99,,,-99.99,Netatmo,2013-04-10 06:15:00,
2013-04-10 08:20:00,57.9,53.1,30.05,North,-999,-999.0,-999.0,84,-99.99,,,-99.99,Netatmo,2013-04-10 06:20:00,
2013-04-10 08:24:00,58.1,53.3,30.05,North,-999,-999.0,-999.0,84,-99.99,,,-99.99,Netatmo,2013-04-10 06:24:00,
2013-04-10 08:25:00,58.1,53.3,30.05,North,-999,-999.0,-999.0,84,-99.99,,,-99.99,Netatmo,2013-04-10 06:25:00,
2013-04-10 08:30:00,58.1,53.3,30.05,North,-999,-999.0,-999.0,84,-99.99,,,-99.99,Netatmo,2013-04-10 06:30:00,
2013-04-10 08:34:00,58.1,53.3,30.06,North,-999,-999.0,-999.0,84,-99.99,,,-99.99,Netatmo,2013-04-10 06:34:00,
2013-04-10 08:40:00,58.1,53.3,30.06,North,-999,-999.0,-999.0,84,-99.99,,,-99.99,Netatmo,2013-04-10 06:40:00,
2013-04-10 08:45:00,58.3,53.8,30.06,North,-999,-999.0,-999.0,85,-99.99,,,-99.99,Netatmo,2013-04-10 06:45:00,
2013-04-10 08:50:00,58.3,53.8,30.06,North,-999,-999.0,-999.0,85,-99.99,,,-99.99,Netatmo,2013-04-10 06:50:00,
2013-04-10 08:55:00,58.3,53.8,30.06,North,-999,-999.0,-999.0,85,-99.99,,,-99.99,Netatmo,2013-04-10 06:55:00,
2013-04-10 09:00:00,58.3,53.8,30.06,North,-999,-999.0,-999.0,85,-99.99,,,-99.99,Netatmo,2013-04-10 07:00:00,
2013-04-10 09:04:00,58.3,53.8,30.07,North,-999,-999.0,-999.0,85,-99.99,,,-99.99,Netatmo,2013-04-10 07:04:00,
2013-04-10 09:10:00,58.3,53.8,30.07,North,-999,-999.0,-999.0,85,-99.99,,,-99.99,Netatmo,2013-04-10 07:10:00,
2013-04-10 09:15:00,58.6,54.1,30.06,North,-999,-999.0,-999.0,85,-99.99,,,-99.99,Netatmo,2013-04-10 07:15:00,
2013-04-10 09:20:00,58.6,54.1,30.06,North,-999,-999.0,-999.0,85,-99.99,,,-99.99,Netatmo,2013-04-10 07:20:00,
2013-04-10 09:25:00,59.0,54.5,30.06,North,-999,-999.0,-999.0,85,-99.99,,,-99.99,Netatmo,2013-04-10 07:25:00,
2013-04-10 09:30:00,59.0,54.5,30.06,North,-999,-999.0,-999.0,85,-99.99,,,-99.99,Netatmo,2013-04-10 07:30:00,
2013-04-10 09:35:00,59.2,54.7,30.06,North,-999,-999.0,-999.0,85,-99.99,,,-99.99,Netatmo,2013-04-10 07:35:00,
2013-04-10 09:40:00,59.2,54.7,30.06,North,-999,-999.0,-999.0,85,-99.99,,,-99.99,Netatmo,2013-04-10 07:40:00,
2013-04-10 09:50:00,59.4,54.9,30.07,North,-999,-999.0,-999.0,85,-99.99,,,-99.99,Netatmo,2013-04-10 07:50:00,
2013-04-10 09:55:00,59.4,54.9,30.07,North,-999,-999.0,-999.0,85,-99.99,,,-99.99,Netatmo,2013-04-10 07:55:00,
2013-04-10 10:00:00,59.5,55.0,30.07,North,-999,-999.0,-999.0,85,-99.99,,,-99.99,Netatmo,2013-04-10 08:00:00,
2013-04-10 10:05:00,59.9,55.4,30.07,North,-999,-999.0,-999.0,85,-99.99,,,-99.99,Netatmo,2013-04-10 08:05:00,
2013-04-10 10:10:00,59.9,55.4,30.07,North,-999,-999.0,-999.0,85,-99.99,,,-99.99,Netatmo,2013-04-10 08:10:00,
2013-04-10 10:20:00,60.1,55.2,30.07,North,-999,-999.0,-999.0,84,-99.99,,,-99.99,Netatmo,2013-04-10 08:20:00,
2013-04-10 10:25:00,60.1,55.2,30.07,North,-999,-999.0,-999.0,84,-99.99,,,-99.99,Netatmo,2013-04-10 08:25:00,
2013-04-10 10:30:00,60.4,55.6,30.08,North,-999,-999.0,-999.0,84,-99.99,,,-99.99,Netatmo,2013-04-10 08:30:00,
2013-04-10 10:35:00,60.4,55.6,30.08,North,-999,-999.0,-999.0,84,-99.99,,,-99.99,Netatmo,2013-04-10 08:35:00,
2013-04-10 10:40:00,60.6,55.5,30.08,North,-999,-999.0,-999.0,83,-99.99,,,-99.99,Netatmo,2013-04-10 08:40:00,
2013-04-10 10:45:00,60.6,55.5,30.08,North,-999,-999.0,-999.0,83,-99.99,,,-99.99,Netatmo,2013-04-10 08:45:00,
2013-04-10 10:50:00,60.8,55.6,30.08,North,-999,-999.0,-999.0,83,-99.99,,,-99.99,Netatmo,2013-04-10 08:50:00,
2013-04-10 11:00:00,61.0,55.8,30.08,North,-999,-999.0,-999.0,83,-99.99,,,-99.99,Netatmo,2013-04-10 09:00:00,
2013-04-10 11:05:00,61.0,55.8,30.08,North,-999,-999.0,-999.0,83,-99.99,,,-99.99,Netatmo,2013-04-10 09:05:00,
2013-04-10 11:10:00,61.2,56.0,30.08,North,-999,-999.0,-999.0,83,-99.99,,,-99.99,Netatmo,2013-04-10 09:10:00,
2013-04-10 11:15:00,61.2,56.0,30.08,North,-999,-999.0,-999.0,83,-99.99,,,-99.99,Netatmo,2013-04-10 09:15:00,
2013-04-10 11:20:00,61.2,55.7,30.08,North,-999,-999.0,-999.0,82,-99.99,,,-99.99,Netatmo,2013-04-10 09:20:00,
2013-04-10 11:25:00,61.2,55.7,30.08,North,-999,-999.0,-999.0,82,-99.99,,,-99.99,Netatmo,2013-04-10 09:25:00,
2013-04-10 11:30:00,61.5,56.0,30.07,North,-999,-999.0,-999.0,82,-99.99,,,-99.99,Netatmo,2013-04-10 09:30:00,
2013-04-10 11:35:00,61.5,56.0,30.07,North,-999,-999.0,-999.0,82,-99.99,,,-99.99,Netatmo,2013-04-10 09:35:00,
2013-04-10 11:40:00,61.7,56.2,30.07,North,-999,-999.0,-999.0,82,-99.99,,,-99.99,Netatmo,2013-04-10 09:40:00,
2013-04-10 11:50:00,61.9,56.0,30.08,North,-999,-999.0,-999.0,81,-99.99,,,-99.99,Netatmo,2013-04-10 09:50:00,
2013-04-10 11:55:00,61.9,56.0,30.08,North,-999,-999.0,-999.0,81,-99.99,,,-99.99,Netatmo,2013-04-10 09:55:00,
2013-04-10 12:00:00,62.1,55.9,30.07,North,-999,-999.0,-999.0,80,-99.99,,,-99.99,Netatmo,2013-04-10 10:00:00,
2013-04-10 12:05:00,62.1,55.9,30.07,North,-999,-999.0,-999.0,80,-99.99,,,-99.99,Netatmo,2013-04-10 10:05:00,
2013-04-10 12:06:00,61.7,55.5,30.07,North,-999,-999.0,-999.0,80,-99.99,,,-99.99,Netatmo,2013-04-10 10:06:00,
2013-04-10 12:10:00,61.7,55.5,30.07,North,-999,-999.0,-999.0,80,-99.99,,,-99.99,Netatmo,2013-04-10 10:10:00,
2013-04-10 12:15:00,61.7,55.5,30.07,North,-999,-999.0,-999.0,80,-99.99,,,-99.99,Netatmo,2013-04-10 10:15:00,
2013-04-10 14:35:00,63.0,56.4,30.08,North,-999,-999.0,-999.0,79,-99.99,,,-99.99,Netatmo,2013-04-10 12:35:00,
2013-04-10 14:40:00,63.3,56.8,30.08,North,-999,-999.0,-999.0,79,-99.99,,,-99.99,Netatmo,2013-04-10 12:40:00,
2013-04-10 14:45:00,63.3,56.8,30.08,North,-999,-999.0,-999.0,79,-99.99,,,-99.99,Netatmo,2013-04-10 12:45:00,
2013-04-10 14:50:00,63.3,56.1,30.07,North,-999,-999.0,-999.0,77,-99.99,,,-99.99,Netatmo,2013-04-10 12:50:00,
2013-04-10 14:55:00,63.3,56.1,30.07,North,-999,-999.0,-999.0,77,-99.99,,,-99.99,Netatmo,2013-04-10 12:55:00,
2013-04-10 15:00:00,63.3,56.4,30.07,North,-999,-999.0,-999.0,78,-99.99,,,-99.99,Netatmo,2013-04-10 13:00:00,
2013-04-10 15:05:00,63.3,56.4,30.07,North,-999,-999.0,-999.0,78,-99.99,,,-99.99,Netatmo,2013-04-10 13:05:00,
2013-04-10 15:10:00,63.5,56.3,30.07,North,-999,-999.0,-999.0,77,-99.99,,,-99.99,Netatmo,2013-04-10 13:10:00,
2013-04-10 15:15:00,63.5,56.3,30.07,North,-999,-999.0,-999.0,77,-99.99,,,-99.99,Netatmo,2013-04-10 13:15:00,
2013-04-10 15:20:00,63.9,56.6,30.07,North,-999,-999.0,-999.0,77,-99.99,,,-99.99,Netatmo,2013-04-10 13:20:00,
2013-04-10 15:25:00,63.9,56.6,30.07,North,-999,-999.0,-999.0,77,-99.99,,,-99.99,Netatmo,2013-04-10 13:25:00,
2013-04-10 15:30:00,63.9,56.6,30.07,North,-999,-999.0,-999.0,77,-99.99,,,-99.99,Netatmo,2013-04-10 13:30:00,
2013-04-10 15:35:00,63.9,56.6,30.07,North,-999,-999.0,-999.0,77,-99.99,,,-99.99,Netatmo,2013-04-10 13:35:00,
2013-04-10 15:40:00,63.5,56.3,30.07,North,-999,-999.0,-999.0,77,-99.99,,,-99.99,Netatmo,2013-04-10 13:40:00,
2013-04-10 15:45:00,63.5,56.3,30.07,North,-999,-999.0,-999.0,77,-99.99,,,-99.99,Netatmo,2013-04-10 13:45:00,
2013-04-10 15:50:00,63.5,56.3,30.07,North,-999,-999.0,-999.0,77,-99.99,,,-99.99,Netatmo,2013-04-10 13:50:00,
2013-04-10 15:55:00,63.5,56.3,30.07,North,-999,-999.0,-999.0,77,-99.99,,,-99.99,Netatmo,2013-04-10 13:55:00,
2013-04-10 15:58:00,63.5,56.3,30.08,North,-999,-999.0,-999.0,77,-99.99,,,-99.99,Netatmo,2013-04-10 13:58:00,
2013-04-10 16:00:00,63.5,56.3,30.08,North,-999,-999.0,-999.0,77,-99.99,,,-99.99,Netatmo,2013-04-10 14:00:00,
2013-04-10 16:05:00,63.5,56.3,30.08,North,-999,-999.0,-999.0,77,-99.99,,,-99.99,Netatmo,2013-04-10 14:05:00,
2013-04-10 16:15:00,63.7,56.4,30.07,North,-999,-999.0,-999.0,77,-99.99,,,-99.99,Netatmo,2013-04-10 14:15:00,
2013-04-10 16:25:00,63.9,56.6,30.07,North,-999,-999.0,-999.0,77,-99.99,,,-99.99,Netatmo,2013-04-10 14:25:00,
2013-04-10 16:35:00,63.5,56.3,30.07,North,-999,-999.0,-999.0,77,-99.99,,,-99.99,Netatmo,2013-04-10 14:35:00,
2013-04-10 16:38:00,63.5,56.6,30.07,North,-999,-999.0,-999.0,78,-99.99,,,-99.99,Netatmo,2013-04-10 14:38:00,
2013-04-10 16:45:00,63.5,56.6,30.07,North,-999,-999.0,-999.0,78,-99.99,,,-99.99,Netatmo,2013-04-10 14:45:00,
2013-04-10 19:30:00,60.1,54.6,30.08,North,-999,-999.0,-999.0,82,-99.99,,,-99.99,Netatmo,2013-04-10 17:30:00,
2013-04-10 19:35:00,60.1,54.6,30.08,North,-999,-999.0,-999.0,82,-99.99,,,-99.99,Netatmo,2013-04-10 17:35:00,
2013-04-10 19:40:00,59.7,54.3,30.08,North,-999,-999.0,-999.0,82,-99.99,,,-99.99,Netatmo,2013-04-10 17:40:00,
2013-04-10 19:45:00,59.7,54.3,30.08,North,-999,-999.0,-999.0,82,-99.99,,,-99.99,Netatmo,2013-04-10 17:45:00,
2013-04-10 19:55:00,59.4,53.9,30.09,North,-999,-999.0,-999.0,82,-99.99,,,-99.99,Netatmo,2013-04-10 17:55:00,
2013-04-10 20:00:00,59.4,53.9,30.09,North,-999,-999.0,-999.0,82,-99.99,,,-99.99,Netatmo,2013-04-10 18:00:00,
2013-04-10 20:10:00,59.4,53.9,30.09,North,-999,-999.0,-999.0,82,-99.99,,,-99.99,Netatmo,2013-04-10 18:10:00,
2013-04-10 20:15:00,59.2,54.0,30.09,North,-999,-999.0,-999.0,83,-99.99,,,-99.99,Netatmo,2013-04-10 18:15:00,
2013-04-10 20:20:00,59.2,54.0,30.09,North,-999,-999.0,-999.0,83,-99.99,,,-99.99,Netatmo,2013-04-10 18:20:00,
2013-04-10 20:25:00,59.0,53.9,30.09,North,-999,-999.0,-999.0,83,-99.99,,,-99.99,Netatmo,2013-04-10 18:25:00,
2013-04-10 20:35:00,59.0,53.9,30.09,North,-999,-999.0,-999.0,83,-99.99,,,-99.99,Netatmo,2013-04-10 18:35:00,
2013-04-10 20:40:00,59.0,53.9,30.09,North,-999,-999.0,-999.0,83,-99.99,,,-99.99,Netatmo,2013-04-10 18:40:00,
2013-04-10 20:45:00,59.0,54.2,30.10,North,-999,-999.0,-999.0,84,-99.99,,,-99.99,Netatmo,2013-04-10 18:45:00,
2013-04-10 20:55:00,58.8,54.0,30.10,North,-999,-999.0,-999.0,84,-99.99,,,-99.99,Netatmo,2013-04-10 18:55:00,
2013-04-10 21:00:00,58.8,54.0,30.10,North,-999,-999.0,-999.0,84,-99.99,,,-99.99,Netatmo,2013-04-10 19:00:00,
2013-04-10 21:05:00,58.8,54.0,30.10,North,-999,-999.0,-999.0,84,-99.99,,,-99.99,Netatmo,2013-04-10 19:05:00,
2013-04-10 21:10:00,58.8,54.0,30.10,North,-999,-999.0,-999.0,84,-99.99,,,-99.99,Netatmo,2013-04-10 19:10:00,
2013-04-10 21:15:00,58.8,54.0,30.10,North,-999,-999.0,-999.0,84,-99.99,,,-99.99,Netatmo,2013-04-10 19:15:00,
2013-04-10 21:25:00,58.6,53.8,30.10,North,-999,-999.0,-999.0,84,-99.99,,,-99.99,Netatmo,2013-04-10 19:25:00,
2013-04-10 21:30:00,58.6,53.8,30.10,North,-999,-999.0,-999.0,84,-99.99,,,-99.99,Netatmo,2013-04-10 19:30:00,
2013-04-10 21:35:00,58.5,53.7,30.11,North,-999,-999.0,-999.0,84,-99.99,,,-99.99,Netatmo,2013-04-10 19:35:00,
2013-04-10 21:40:00,58.5,53.7,30.11,North,-999,-999.0,-999.0,84,-99.99,,,-99.99,Netatmo,2013-04-10 19:40:00,
2013-04-10 21:45:00,58.3,53.5,30.12,North,-999,-999.0,-999.0,84,-99.99,,,-99.99,Netatmo,2013-04-10 19:45:00,
2013-04-10 21:50:00,58.3,53.5,30.12,North,-999,-999.0,-999.0,84,-99.99,,,-99.99,Netatmo,2013-04-10 19:50:00,
2013-04-10 21:54:00,58.1,53.3,30.12,North,-999,-999.0,-999.0,84,-99.99,,,-99.99,Netatmo,2013-04-10 19:54:00,
2013-04-10 21:55:00,58.1,53.3,30.12,North,-999,-999.0,-999.0,84,-99.99,,,-99.99,Netatmo,2013-04-10 19:55:00,
2013-04-10 22:00:00,58.1,53.3,30.12,North,-999,-999.0,-999.0,84,-99.99,,,-99.99,Netatmo,2013-04-10 20:00:00,
2013-04-10 23:20:00,57.9,53.4,30.13,North,-999,-999.0,-999.0,85,-99.99,,,-99.99,Netatmo,2013-04-10 21:20:00,
2013-04-10 23:25:00,57.9,53.4,30.13,North,-999,-999.0,-999.0,85,-99.99,,,-99.99,Netatmo,2013-04-10 21:25:00,
2013-04-10 23:55:00,57.9,53.8,30.13,North,-999,-999.0,-999.0,86,-99.99,,,-99.99,Netatmo,2013-04-10 21:55:00,